Eugene, OR (97401)

4:56 PM PST on February 21, 2017 (GMT -0800)
Original Cal Young | | Change Station

Elev 423 ft 44.08 °N, 123.08 °W | Updated 10 seconds ago

Rain
Rain
41.9 °F
Feels Like 42 °F
N
0.0
Wind Variable Wind from NW
Gusts 0.0 mph

Today
High -- | Low -- °F
--% Chance of Precip.
Yesterday
High -- | Low -- °F
Precip. -- in
Pressure 30.11 in
Visibility 8.0 miles
Clouds Overcast 3200 ft
Windchill 42 °F
Dew Point 41 °F
Humidity 96%
Rainfall 1.42 in
Snow Depth Not available.
7:01 AM 5:50 PM
Waning Crescent, 21% visible
METAR KEUG 212354Z 29006KT 8SM RA OVC032 06/05 A3010 RMK AO2 SLP194 P0008 60019 T00610050 10078 20061 53021
Pressure 30.11 in
Visibility 8.0 miles
Clouds Overcast 3200 ft
Windchill 42 °F
Dew Point 41 °F
Humidity 96%
Rainfall 1.42 in
Snow Depth Not available.
7:01 AM 5:50 PM
Waning Crescent, 21% visible
METAR KEUG 212354Z 29006KT 8SM RA OVC032 06/05 A3010 RMK AO2 SLP194 P0008 60019 T00610050 10078 20061 53021

Get Your Daily Forecast Email!

Thanks for signing up!

Be on the lookout for a verification email in your inbox.

You'll start receiving the daily forecast at 8 AM.

×

10-Day Weather Forecast

Almanac

Astronomy

Feb. 21, 2017 Rise Set
Actual Time
Civil Twilight
Nautical Twilight
Astronomical Twilight
Moon
Length of Visible Light
Length of Day
Tomorrow will be .
, % of the Moon is Illuminated

Today's Extremes

State Highs State Lows

Community

WunderPhotos

Upload Photos

1,962,540 photos uploaded!

WunderBlog® & News

Nearby

Air Quality

  Air Quality AQ Index Pollutant
Not available.

Snow Depth

Station Depth Elevation

Earthquake Activity

City Distance Mag. Time & Date
Minimum magnitude displayed is 2.5.

Coastal Water Temperatures

Place Temperature

Stations

Nearby Weather Stations

Station Location Temp. Windchill Dew Point Humidity Wind Precip. Elev Updated Type
                   

Watches & Warnings

There are currently no watches in effect.